Indian Valley, VA (24105)

5:34 PM EDT on October 31, 2014 (GMT -0400)
Blue Springs | Change Station
CLOSE
Current Station
Personal Weather Station
Location: Snowville, VA
Elevation: 2490 ft
Nearby Weather Stations

Elev 2490 ft 37.00 °N, 80.56 °W | Updated 0 second ago

Overcast
Overcast
42.2 °F
Feels Like 42 °F
N
0.0
Wind Variable Wind from NW
Gusts 1.0 mph

Today
High -- | Low -- °F
--% Chance of Precip.
Yesterday
High -- | Low -- °F
Precip. -- in
7:45 AM 6:26 PM
First Quarter, 59% visible
Pressure 29.82 in
Visibility 5.0 miles
Clouds Mostly Cloudy 1300 ft
Overcast 1900 ft
Windchill 42 °F
Dew Point 40 °F
Humidity 90%
Rainfall 0.00 in
Snow Depth Not available.
UV 0 out of 12
Pollen .10 out of 12
Air Quality Not available.
Flu Activity Not available.
METAR KHLX 312115Z AUTO 31007KT 5SM -RA BKN013 OVC019 06/04 A2982 RMK AO2 P0001 T00560043

More Conditions Fewer Conditions

Pressure 29.82 in
Visibility 5.0 miles
Clouds Mostly Cloudy 1300 ft
Overcast 1900 ft
Windchill 42 °F
Dew Point 40 °F
Humidity 90%
Rainfall 0.00 in
Snow Depth Not available.
UV 0 out of 12
Pollen .10 out of 12
Air Quality Not available.
Flu Activity Not available.
METAR KHLX 312115Z AUTO 31007KT 5SM -RA BKN013 OVC019 06/04 A2982 RMK AO2 P0001 T00560043

More Conditions Fewer Conditions

10-Day Weather Forecast

Almanac

Astronomy

Oct. 31, 2014 Rise Set
Actual Time
Civil Twilight
Nautical Twilight
Astronomical Twilight
Moon
Length of Visible Light
Length of Day
Tomorrow will be .
, % of the Moon is Illuminated

Today's Extremes

State Highs State Lows

Community

WunderPhotos

Upload Photos

1,766,738 photos uploaded!

WunderBlogs® & News

Nearby

Air Quality

  Air Quality AQ Index Pollutant
Not available.

Snow Depth

Station Depth Elevation

Earthquake Activity

City Distance Mag. Time & Date
Minimum magnitude displayed is 2.5.

Coastal Water Temperatures

Place Temperature

Nearby Weather Stations